sensor_id;sensor_type;location;lat;lon;timestamp;temperature;humidity
71175;DHT22;58876;51.994;4.472;2022-09-03T00:05:39;20.20;46.56
71175;DHT22;58876;51.994;4.472;2022-09-03T00:08:09;20.20;46.66
71175;DHT22;58876;51.994;4.472;2022-09-03T00:10:53;20.16;46.77
71175;DHT22;58876;51.994;4.472;2022-09-03T00:16:21;20.07;46.81
71175;DHT22;58876;51.994;4.472;2022-09-03T00:18:57;20.04;46.83
71175;DHT22;58876;51.994;4.472;2022-09-03T00:21:38;20.01;47.29
71175;DHT22;58876;51.994;4.472;2022-09-03T00:24:08;20.00;47.44
71175;DHT22;58876;51.994;4.472;2022-09-03T00:26:37;19.96;47.30
71175;DHT22;58876;51.994;4.472;2022-09-03T00:29:13;20.00;47.40
71175;DHT22;58876;51.994;4.472;2022-09-03T00:31:45;20.03;46.92
71175;DHT22;58876;51.994;4.472;2022-09-03T00:34:20;20.03;47.20
71175;DHT22;58876;51.994;4.472;2022-09-03T00:36:45;20.06;47.01
71175;DHT22;58876;51.994;4.472;2022-09-03T00:39:14;20.04;47.18
71175;DHT22;58876;51.994;4.472;2022-09-03T00:44:41;20.08;47.29
71175;DHT22;58876;51.994;4.472;2022-09-03T00:47:15;20.13;46.89
71175;DHT22;58876;51.994;4.472;2022-09-03T00:55:26;20.11;47.14
71175;DHT22;58876;51.994;4.472;2022-09-03T00:58:06;20.13;47.03
71175;DHT22;58876;51.994;4.472;2022-09-03T01:00:34;20.11;46.88
71175;DHT22;58876;51.994;4.472;2022-09-03T01:05:46;20.04;47.00
71175;DHT22;58876;51.994;4.472;2022-09-03T01:13:52;19.97;47.33
71175;DHT22;58876;51.994;4.472;2022-09-03T01:16:35;19.97;47.49
71175;DHT22;58876;51.994;4.472;2022-09-03T01:19:27;19.97;47.63
71175;DHT22;58876;51.994;4.472;2022-09-03T01:27:26;20.13;47.28
71175;DHT22;58876;51.994;4.472;2022-09-03T01:30:04;20.08;47.34
71175;DHT22;58876;51.994;4.472;2022-09-03T01:32:44;20.04;47.74
71175;DHT22;58876;51.994;4.472;2022-09-03T01:38:15;19.93;47.61
71175;DHT22;58876;51.994;4.472;2022-09-03T01:44:01;19.87;47.83
71175;DHT22;58876;51.994;4.472;2022-09-03T01:46:40;19.94;47.49
71175;DHT22;58876;51.994;4.472;2022-09-03T01:51:35;19.88;47.45
71175;DHT22;58876;51.994;4.472;2022-09-03T02:00:16;19.67;48.21
71175;DHT22;58876;51.994;4.472;2022-09-03T02:02:48;19.66;48.28
71175;DHT22;58876;51.994;4.472;2022-09-03T02:05:22;19.73;48.49
71175;DHT22;58876;51.994;4.472;2022-09-03T02:08:01;19.60;48.35
71175;DHT22;58876;51.994;4.472;2022-09-03T02:10:40;19.53;48.44
71175;DHT22;58876;51.994;4.472;2022-09-03T02:13:37;19.56;48.70
71175;DHT22;58876;51.994;4.472;2022-09-03T02:16:17;19.57;48.61
71175;DHT22;58876;51.994;4.472;2022-09-03T02:18:50;19.55;48.79
71175;DHT22;58876;51.994;4.472;2022-09-03T02:21:20;19.50;48.60
71175;DHT22;58876;51.994;4.472;2022-09-03T02:23:48;19.48;48.77
71175;DHT22;58876;51.994;4.472;2022-09-03T02:26:18;19.40;48.86
71175;DHT22;58876;51.994;4.472;2022-09-03T02:28:44;19.42;48.77
71175;DHT22;58876;51.994;4.472;2022-09-03T02:31:10;19.43;48.75
71175;DHT22;58876;51.994;4.472;2022-09-03T02:33:39;19.40;48.62
71175;DHT22;58876;51.994;4.472;2022-09-03T02:36:08;19.30;48.92
71175;DHT22;58876;51.994;4.472;2022-09-03T02:38:35;19.22;49.08
71175;DHT22;58876;51.994;4.472;2022-09-03T02:41:01;19.16;49.35
71175;DHT22;58876;51.994;4.472;2022-09-03T02:43:37;19.19;49.27
71175;DHT22;58876;51.994;4.472;2022-09-03T02:46:09;19.15;49.25
71175;DHT22;58876;51.994;4.472;2022-09-03T02:48:36;19.08;49.28
71175;DHT22;58876;51.994;4.472;2022-09-03T02:51:03;19.09;49.40
71175;DHT22;58876;51.994;4.472;2022-09-03T02:56:51;18.95;49.60
71175;DHT22;58876;51.994;4.472;2022-09-03T02:59:16;18.88;49.68
71175;DHT22;58876;51.994;4.472;2022-09-03T03:01:55;18.83;50.28
71175;DHT22;58876;51.994;4.472;2022-09-03T03:04:21;18.84;49.84
71175;DHT22;58876;51.994;4.472;2022-09-03T03:06:46;18.75;50.03
71175;DHT22;58876;51.994;4.472;2022-09-03T03:09:15;18.72;50.37
71175;DHT22;58876;51.994;4.472;2022-09-03T03:11:41;18.63;50.16
71175;DHT22;58876;51.994;4.472;2022-09-03T03:14:06;18.60;50.60
71175;DHT22;58876;51.994;4.472;2022-09-03T03:16:32;18.56;50.94
71175;DHT22;58876;51.994;4.472;2022-09-03T03:18:57;18.50;51.05
71175;DHT22;58876;51.994;4.472;2022-09-03T03:21:23;18.46;50.85
71175;DHT22;58876;51.994;4.472;2022-09-03T03:23:48;18.49;51.06
71175;DHT22;58876;51.994;4.472;2022-09-03T03:26:16;18.41;51.22
71175;DHT22;58876;51.994;4.472;2022-09-03T03:28:46;18.39;51.39
71175;DHT22;58876;51.994;4.472;2022-09-03T03:31:16;18.36;51.52
71175;DHT22;58876;51.994;4.472;2022-09-03T03:33:43;18.34;51.38
71175;DHT22;58876;51.994;4.472;2022-09-03T03:36:11;18.30;51.43
71175;DHT22;58876;51.994;4.472;2022-09-03T03:38:38;18.33;51.37
71175;DHT22;58876;51.994;4.472;2022-09-03T03:41:19;18.39;51.16
71175;DHT22;58876;51.994;4.472;2022-09-03T03:43:47;18.32;51.59
71175;DHT22;58876;51.994;4.472;2022-09-03T03:46:13;18.34;51.59
71175;DHT22;58876;51.994;4.472;2022-09-03T03:48:39;18.37;51.32
71175;DHT22;58876;51.994;4.472;2022-09-03T03:51:08;18.39;51.46
71175;DHT22;58876;51.994;4.472;2022-09-03T03:53:35;18.36;51.38
71175;DHT22;58876;51.994;4.472;2022-09-03T03:56:04;18.39;51.50
71175;DHT22;58876;51.994;4.472;2022-09-03T03:58:32;18.41;50.92
71175;DHT22;58876;51.994;4.472;2022-09-03T04:01:10;18.40;51.49
71175;DHT22;58876;51.994;4.472;2022-09-03T04:03:36;18.41;51.28
71175;DHT22;58876;51.994;4.472;2022-09-03T04:06:03;18.40;50.90
71175;DHT22;58876;51.994;4.472;2022-09-03T04:08:32;18.34;51.44
71175;DHT22;58876;51.994;4.472;2022-09-03T04:11:00;18.20;51.94
71175;DHT22;58876;51.994;4.472;2022-09-03T04:13:38;18.20;51.60
71175;DHT22;58876;51.994;4.472;2022-09-03T04:18:32;18.23;51.73
71175;DHT22;58876;51.994;4.472;2022-09-03T04:21:06;18.22;51.76
71175;DHT22;58876;51.994;4.472;2022-09-03T04:23:33;18.13;51.96
71175;DHT22;58876;51.994;4.472;2022-09-03T04:25:59;18.14;51.74
71175;DHT22;58876;51.994;4.472;2022-09-03T04:28:26;18.05;52.02
71175;DHT22;58876;51.994;4.472;2022-09-03T04:30:52;18.09;52.07
71175;DHT22;58876;51.994;4.472;2022-09-03T04:33:18;18.05;51.98
71175;DHT22;58876;51.994;4.472;2022-09-03T04:35:44;18.03;52.43
71175;DHT22;58876;51.994;4.472;2022-09-03T04:38:10;18.01;52.21
71175;DHT22;58876;51.994;4.472;2022-09-03T04:40:36;17.91;52.65
71175;DHT22;58876;51.994;4.472;2022-09-03T04:43:02;17.92;52.49
71175;DHT22;58876;51.994;4.472;2022-09-03T04:45:28;17.92;52.71
71175;DHT22;58876;51.994;4.472;2022-09-03T04:48:01;17.91;52.62
71175;DHT22;58876;51.994;4.472;2022-09-03T04:50:28;17.83;52.94
71175;DHT22;58876;51.994;4.472;2022-09-03T04:52:58;17.77;52.86
71175;DHT22;58876;51.994;4.472;2022-09-03T04:55:24;17.74;52.94
71175;DHT22;58876;51.994;4.472;2022-09-03T04:57:50;17.72;53.23
71175;DHT22;58876;51.994;4.472;2022-09-03T05:00:16;17.72;53.55
71175;DHT22;58876;51.994;4.472;2022-09-03T05:02:44;17.72;53.14
71175;DHT22;58876;51.994;4.472;2022-09-03T05:05:11;17.74;53.14
71175;DHT22;58876;51.994;4.472;2022-09-03T05:07:37;17.67;53.59
71175;DHT22;58876;51.994;4.472;2022-09-03T05:10:05;17.65;53.38
71175;DHT22;58876;51.994;4.472;2022-09-03T05:12:31;17.70;53.28
71175;DHT22;58876;51.994;4.472;2022-09-03T05:14:57;17.62;53.48
71175;DHT22;58876;51.994;4.472;2022-09-03T05:17:24;17.71;52.83
71175;DHT22;58876;51.994;4.472;2022-09-03T05:19:50;17.67;53.40
71175;DHT22;58876;51.994;4.472;2022-09-03T05:22:16;17.64;53.37
71175;DHT22;58876;51.994;4.472;2022-09-03T05:24:49;17.71;53.27
71175;DHT22;58876;51.994;4.472;2022-09-03T05:27:15;17.70;53.36
71175;DHT22;58876;51.994;4.472;2022-09-03T05:29:42;17.71;53.39
71175;DHT22;58876;51.994;4.472;2022-09-03T05:32:07;17.75;53.13
71175;DHT22;58876;51.994;4.472;2022-09-03T05:34:33;17.75;53.01
71175;DHT22;58876;51.994;4.472;2022-09-03T05:36:58;17.67;53.30
71175;DHT22;58876;51.994;4.472;2022-09-03T05:39:24;17.67;53.34
71175;DHT22;58876;51.994;4.472;2022-09-03T05:45:27;17.86;53.01
71175;DHT22;58876;51.994;4.472;2022-09-03T05:47:53;17.91;52.82
71175;DHT22;58876;51.994;4.472;2022-09-03T05:50:19;17.85;52.90
71175;DHT22;58876;51.994;4.472;2022-09-03T05:52:44;17.83;52.81
71175;DHT22;58876;51.994;4.472;2022-09-03T05:55:10;17.86;53.16
71175;DHT22;58876;51.994;4.472;2022-09-03T05:57:35;17.93;52.90
71175;DHT22;58876;51.994;4.472;2022-09-03T06:00:02;17.95;52.62
71175;DHT22;58876;51.994;4.472;2022-09-03T06:02:27;17.99;52.73
71175;DHT22;58876;51.994;4.472;2022-09-03T06:04:53;18.01;52.98
71175;DHT22;58876;51.994;4.472;2022-09-03T06:07:20;18.01;53.41
71175;DHT22;58876;51.994;4.472;2022-09-03T06:09:45;17.99;52.78
71175;DHT22;58876;51.994;4.472;2022-09-03T06:12:12;17.98;52.61
71175;DHT22;58876;51.994;4.472;2022-09-03T06:14:37;18.10;52.74
71175;DHT22;58876;51.994;4.472;2022-09-03T06:17:02;18.12;52.93
71175;DHT22;58876;51.994;4.472;2022-09-03T06:19:28;18.16;52.79
71175;DHT22;58876;51.994;4.472;2022-09-03T06:21:57;18.14;52.32
71175;DHT22;58876;51.994;4.472;2022-09-03T06:24:23;18.29;52.16
71175;DHT22;58876;51.994;4.472;2022-09-03T06:26:51;18.29;52.56
71175;DHT22;58876;51.994;4.472;2022-09-03T06:29:17;18.37;52.49
71175;DHT22;58876;51.994;4.472;2022-09-03T06:31:44;18.43;52.29
71175;DHT22;58876;51.994;4.472;2022-09-03T06:34:12;18.46;52.39
71175;DHT22;58876;51.994;4.472;2022-09-03T06:36:38;18.59;51.69
71175;DHT22;58876;51.994;4.472;2022-09-03T06:39:04;18.59;51.95
71175;DHT22;58876;51.994;4.472;2022-09-03T06:41:31;18.68;51.87
71175;DHT22;58876;51.994;4.472;2022-09-03T06:44:08;18.83;51.49
71175;DHT22;58876;51.994;4.472;2022-09-03T06:46:39;19.02;50.91
71175;DHT22;58876;51.994;4.472;2022-09-03T06:49:06;19.30;50.30
71175;DHT22;58876;51.994;4.472;2022-09-03T06:51:33;19.70;49.21
71175;DHT22;58876;51.994;4.472;2022-09-03T06:54:01;19.97;48.90
71175;DHT22;58876;51.994;4.472;2022-09-03T06:56:27;20.14;48.22
71175;DHT22;58876;51.994;4.472;2022-09-03T06:58:57;20.38;47.59
71175;DHT22;58876;51.994;4.472;2022-09-03T07:01:28;20.64;47.53
71175;DHT22;58876;51.994;4.472;2022-09-03T07:03:58;21.14;45.03
71175;DHT22;58876;51.994;4.472;2022-09-03T07:06:30;21.82;43.91
71175;DHT22;58876;51.994;4.472;2022-09-03T07:08:57;22.77;42.15
71175;DHT22;58876;51.994;4.472;2022-09-03T07:11:27;23.46;40.48
71175;DHT22;58876;51.994;4.472;2022-09-03T07:13:54;23.62;39.90
71175;DHT22;58876;51.994;4.472;2022-09-03T07:16:25;23.79;40.53
71175;DHT22;58876;51.994;4.472;2022-09-03T07:18:53;24.10;39.40
71175;DHT22;58876;51.994;4.472;2022-09-03T07:21:21;24.13;39.79
71175;DHT22;58876;51.994;4.472;2022-09-03T07:23:48;24.00;39.19
71175;DHT22;58876;51.994;4.472;2022-09-03T07:26:19;23.84;39.94
71175;DHT22;58876;51.994;4.472;2022-09-03T07:28:45;23.86;39.98
71175;DHT22;58876;51.994;4.472;2022-09-03T07:31:14;23.92;39.65
71175;DHT22;58876;51.994;4.472;2022-09-03T07:33:41;24.25;39.32
71175;DHT22;58876;51.994;4.472;2022-09-03T07:36:10;24.28;39.19
71175;DHT22;58876;51.994;4.472;2022-09-03T07:38:36;24.62;39.27
71175;DHT22;58876;51.994;4.472;2022-09-03T07:41:04;25.26;37.85
71175;DHT22;58876;51.994;4.472;2022-09-03T07:43:42;25.66;37.12
71175;DHT22;58876;51.994;4.472;2022-09-03T07:46:22;26.29;36.51
71175;DHT22;58876;51.994;4.472;2022-09-03T07:48:49;27.14;34.93
71175;DHT22;58876;51.994;4.472;2022-09-03T07:51:17;27.55;34.10
71175;DHT22;58876;51.994;4.472;2022-09-03T07:53:45;27.73;33.88
71175;DHT22;58876;51.994;4.472;2022-09-03T07:56:11;27.48;34.05
71175;DHT22;58876;51.994;4.472;2022-09-03T07:58:38;27.30;34.05
71175;DHT22;58876;51.994;4.472;2022-09-03T08:01:08;27.38;34.13
71175;DHT22;58876;51.994;4.472;2022-09-03T08:03:34;26.74;34.85
71175;DHT22;58876;51.994;4.472;2022-09-03T08:06:06;27.07;35.32
71175;DHT22;58876;51.994;4.472;2022-09-03T08:08:34;27.39;34.42
71175;DHT22;58876;51.994;4.472;2022-09-03T08:11:19;26.32;35.81
71175;DHT22;58876;51.994;4.472;2022-09-03T08:13:48;25.36;37.63
71175;DHT22;58876;51.994;4.472;2022-09-03T08:16:16;24.72;38.73
71175;DHT22;58876;51.994;4.472;2022-09-03T08:18:45;24.55;39.35
71175;DHT22;58876;51.994;4.472;2022-09-03T08:21:14;24.58;39.69
71175;DHT22;58876;51.994;4.472;2022-09-03T08:23:44;24.83;39.78
71175;DHT22;58876;51.994;4.472;2022-09-03T08:26:11;25.05;38.99
71175;DHT22;58876;51.994;4.472;2022-09-03T08:28:37;25.02;39.12
71175;DHT22;58876;51.994;4.472;2022-09-03T08:31:18;24.71;39.00
71175;DHT22;58876;51.994;4.472;2022-09-03T08:33:46;24.65;40.29
71175;DHT22;58876;51.994;4.472;2022-09-03T08:36:15;24.34;40.28
71175;DHT22;58876;51.994;4.472;2022-09-03T08:38:43;24.57;40.26
71175;DHT22;58876;51.994;4.472;2022-09-03T08:41:15;25.73;38.30
71175;DHT22;58876;51.994;4.472;2022-09-03T08:43:49;26.31;37.30
71175;DHT22;58876;51.994;4.472;2022-09-03T08:46:23;26.57;36.68
71175;DHT22;58876;51.994;4.472;2022-09-03T08:48:50;26.90;36.67
71175;DHT22;58876;51.994;4.472;2022-09-03T08:51:22;27.10;36.30
71175;DHT22;58876;51.994;4.472;2022-09-03T08:53:54;27.08;35.81
71175;DHT22;58876;51.994;4.472;2022-09-03T08:56:30;27.16;36.06
71175;DHT22;58876;51.994;4.472;2022-09-03T08:59:00;27.03;36.10
71175;DHT22;58876;51.994;4.472;2022-09-03T09:04:26;27.01;35.69
71175;DHT22;58876;51.994;4.472;2022-09-03T09:07:26;26.50;36.67
71175;DHT22;58876;51.994;4.472;2022-09-03T09:10:00;26.50;36.45
71175;DHT22;58876;51.994;4.472;2022-09-03T09:15:13;26.45;36.42
71175;DHT22;58876;51.994;4.472;2022-09-03T09:23:04;26.21;37.06
71175;DHT22;58876;51.994;4.472;2022-09-03T09:25:32;26.19;36.88
71175;DHT22;58876;51.994;4.472;2022-09-03T09:28:03;26.26;37.11
71175;DHT22;58876;51.994;4.472;2022-09-03T09:30:32;26.05;37.66
71175;DHT22;58876;51.994;4.472;2022-09-03T09:32:58;26.09;38.04
71175;DHT22;58876;51.994;4.472;2022-09-03T09:35:25;26.21;38.06
71175;DHT22;58876;51.994;4.472;2022-09-03T09:37:53;26.25;37.87
71175;DHT22;58876;51.994;4.472;2022-09-03T09:40:29;26.26;37.47
71175;DHT22;58876;51.994;4.472;2022-09-03T09:43:18;26.11;38.14
71175;DHT22;58876;51.994;4.472;2022-09-03T09:45:51;26.25;37.87
71175;DHT22;58876;51.994;4.472;2022-09-03T09:48:29;26.45;37.39
71175;DHT22;58876;51.994;4.472;2022-09-03T09:51:11;26.50;37.62
71175;DHT22;58876;51.994;4.472;2022-09-03T09:53:37;26.63;37.16
71175;DHT22;58876;51.994;4.472;2022-09-03T09:56:04;26.77;36.36
71175;DHT22;58876;51.994;4.472;2022-09-03T09:58:31;26.83;36.56
71175;DHT22;58876;51.994;4.472;2022-09-03T10:03:25;26.70;37.01
71175;DHT22;58876;51.994;4.472;2022-09-03T10:06:05;26.83;36.66
71175;DHT22;58876;51.994;4.472;2022-09-03T10:08:50;26.90;36.61
71175;DHT22;58876;51.994;4.472;2022-09-03T10:11:19;26.97;36.31
71175;DHT22;58876;51.994;4.472;2022-09-03T10:13:46;27.12;36.72
71175;DHT22;58876;51.994;4.472;2022-09-03T10:16:22;27.14;35.53
71175;DHT22;58876;51.994;4.472;2022-09-03T10:21:40;27.54;36.07
71175;DHT22;58876;51.994;4.472;2022-09-03T10:24:39;27.70;36.39
71175;DHT22;58876;51.994;4.472;2022-09-03T10:27:11;27.73;36.09
71175;DHT22;58876;51.994;4.472;2022-09-03T10:29:40;27.78;35.58
71175;DHT22;58876;51.994;4.472;2022-09-03T10:32:15;27.94;36.75
71175;DHT22;58876;51.994;4.472;2022-09-03T10:40:38;27.93;35.64
71175;DHT22;58876;51.994;4.472;2022-09-03T10:45:58;28.13;35.36
71175;DHT22;58876;51.994;4.472;2022-09-03T10:51:35;28.51;35.96
71175;DHT22;58876;51.994;4.472;2022-09-03T10:59:57;29.02;35.19
71175;DHT22;58876;51.994;4.472;2022-09-03T11:05:52;29.15;34.25
71175;DHT22;58876;51.994;4.472;2022-09-03T11:08:31;29.25;33.66
71175;DHT22;58876;51.994;4.472;2022-09-03T11:11:24;29.22;33.63
71175;DHT22;58876;51.994;4.472;2022-09-03T11:14:14;29.27;33.76
71175;DHT22;58876;51.994;4.472;2022-09-03T11:16:52;29.29;33.58
71175;DHT22;58876;51.994;4.472;2022-09-03T11:19:32;29.06;34.56
71175;DHT22;58876;51.994;4.472;2022-09-03T11:21:58;29.27;34.47
71175;DHT22;58876;51.994;4.472;2022-09-03T11:24:28;29.08;32.84
71175;DHT22;58876;51.994;4.472;2022-09-03T11:27:01;29.23;33.36
71175;DHT22;58876;51.994;4.472;2022-09-03T11:31:57;29.27;33.68
71175;DHT22;58876;51.994;4.472;2022-09-03T11:34:32;29.02;32.84
71175;DHT22;58876;51.994;4.472;2022-09-03T11:37:15;29.29;32.73
71175;DHT22;58876;51.994;4.472;2022-09-03T11:39:42;29.26;33.16
71175;DHT22;58876;51.994;4.472;2022-09-03T11:42:19;29.30;33.43
71175;DHT22;58876;51.994;4.472;2022-09-03T11:44:45;29.26;33.45
71175;DHT22;58876;51.994;4.472;2022-09-03T11:49:47;29.59;32.39
71175;DHT22;58876;51.994;4.472;2022-09-03T11:52:29;29.45;32.95
71175;DHT22;58876;51.994;4.472;2022-09-03T11:54:56;29.13;33.61
71175;DHT22;58876;51.994;4.472;2022-09-03T11:57:27;29.05;34.37
71175;DHT22;58876;51.994;4.472;2022-09-03T12:02:47;28.81;35.07
71175;DHT22;58876;51.994;4.472;2022-09-03T12:05:34;28.95;35.13
71175;DHT22;58876;51.994;4.472;2022-09-03T12:10:48;29.87;33.69
71175;DHT22;58876;51.994;4.472;2022-09-03T12:18:40;30.73;30.64
71175;DHT22;58876;51.994;4.472;2022-09-03T12:21:09;30.90;30.99
71175;DHT22;58876;51.994;4.472;2022-09-03T12:23:49;30.87;30.88
71175;DHT22;58876;51.994;4.472;2022-09-03T12:26:24;31.06;30.98
71175;DHT22;58876;51.994;4.472;2022-09-03T12:28:58;31.20;31.43
71175;DHT22;58876;51.994;4.472;2022-09-03T12:31:27;31.26;30.89
71175;DHT22;58876;51.994;4.472;2022-09-03T12:34:02;31.10;29.96
71175;DHT22;58876;51.994;4.472;2022-09-03T12:36:38;31.20;30.05
71175;DHT22;58876;51.994;4.472;2022-09-03T12:39:24;31.24;30.72
71175;DHT22;58876;51.994;4.472;2022-09-03T12:42:02;30.83;30.05
71175;DHT22;58876;51.994;4.472;2022-09-03T12:49:44;30.63;31.02
71175;DHT22;58876;51.994;4.472;2022-09-03T12:52:20;31.01;31.50
71175;DHT22;58876;51.994;4.472;2022-09-03T12:57:41;31.30;29.89
71175;DHT22;58876;51.994;4.472;2022-09-03T13:00:13;31.33;29.42
71175;DHT22;58876;51.994;4.472;2022-09-03T13:02:52;31.33;30.79
71175;DHT22;58876;51.994;4.472;2022-09-03T13:08:03;30.93;30.56
71175;DHT22;58876;51.994;4.472;2022-09-03T13:10:36;30.84;31.16
71175;DHT22;58876;51.994;4.472;2022-09-03T13:13:49;31.06;31.00
71175;DHT22;58876;51.994;4.472;2022-09-03T13:19:04;31.47;29.50
71175;DHT22;58876;51.994;4.472;2022-09-03T13:38:17;31.75;29.08
71175;DHT22;58876;51.994;4.472;2022-09-03T13:40:55;32.09;30.04
71175;DHT22;58876;51.994;4.472;2022-09-03T13:43:33;32.32;30.17
71175;DHT22;58876;51.994;4.472;2022-09-03T13:48:58;32.24;29.22
71175;DHT22;58876;51.994;4.472;2022-09-03T13:51:58;32.27;28.77
71175;DHT22;58876;51.994;4.472;2022-09-03T13:54:34;32.17;28.70
71175;DHT22;58876;51.994;4.472;2022-09-03T13:57:21;32.23;28.58
71175;DHT22;58876;51.994;4.472;2022-09-03T13:59:52;32.09;27.30
71175;DHT22;58876;51.994;4.472;2022-09-03T14:05:37;32.40;28.38
71175;DHT22;58876;51.994;4.472;2022-09-03T14:08:31;32.22;27.55
71175;DHT22;58876;51.994;4.472;2022-09-03T14:11:22;32.08;27.61
71175;DHT22;58876;51.994;4.472;2022-09-03T14:14:20;31.99;27.47
71175;DHT22;58876;51.994;4.472;2022-09-03T14:17:14;31.82;27.81
71175;DHT22;58876;51.994;4.472;2022-09-03T14:20:01;31.85;28.65
71175;DHT22;58876;51.994;4.472;2022-09-03T14:22:51;32.05;28.25
71175;DHT22;58876;51.994;4.472;2022-09-03T14:25:20;31.95;28.23
71175;DHT22;58876;51.994;4.472;2022-09-03T14:27:46;31.99;28.03
71175;DHT22;58876;51.994;4.472;2022-09-03T14:38:30;31.76;29.08
71175;DHT22;58876;51.994;4.472;2022-09-03T14:41:09;31.58;28.47
71175;DHT22;58876;51.994;4.472;2022-09-03T14:44:08;31.48;29.23
71175;DHT22;58876;51.994;4.472;2022-09-03T15:06:23;31.68;27.60
71175;DHT22;58876;51.994;4.472;2022-09-03T15:11:33;31.66;27.91
71175;DHT22;58876;51.994;4.472;2022-09-03T15:14:14;31.55;28.55
71175;DHT22;58876;51.994;4.472;2022-09-03T15:16:55;31.74;28.44
71175;DHT22;58876;51.994;4.472;2022-09-03T15:30:34;32.03;27.57
71175;DHT22;58876;51.994;4.472;2022-09-03T15:33:31;31.84;27.33
71175;DHT22;58876;51.994;4.472;2022-09-03T15:36:10;31.64;27.82
71175;DHT22;58876;51.994;4.472;2022-09-03T15:39:04;31.72;27.90
71175;DHT22;58876;51.994;4.472;2022-09-03T15:41:55;31.30;27.92
71175;DHT22;58876;51.994;4.472;2022-09-03T15:44:23;31.24;28.52
71175;DHT22;58876;51.994;4.472;2022-09-03T15:46:55;31.18;28.70
71175;DHT22;58876;51.994;4.472;2022-09-03T15:49:35;31.13;29.13
71175;DHT22;58876;51.994;4.472;2022-09-03T15:52:28;31.07;28.37
71175;DHT22;58876;51.994;4.472;2022-09-03T15:55:09;30.98;28.67
71175;DHT22;58876;51.994;4.472;2022-09-03T16:00:32;30.87;28.39
71175;DHT22;58876;51.994;4.472;2022-09-03T16:03:10;30.49;28.90
71175;DHT22;58876;51.994;4.472;2022-09-03T16:05:49;30.33;29.19
71175;DHT22;58876;51.994;4.472;2022-09-03T16:11:06;31.04;28.57
71175;DHT22;58876;51.994;4.472;2022-09-03T16:13:55;31.27;29.12
71175;DHT22;58876;51.994;4.472;2022-09-03T16:16:46;31.45;28.59
71175;DHT22;58876;51.994;4.472;2022-09-03T16:22:29;31.54;28.70
71175;DHT22;58876;51.994;4.472;2022-09-03T16:25:02;31.52;28.03
71175;DHT22;58876;51.994;4.472;2022-09-03T16:30:20;31.52;28.65
71175;DHT22;58876;51.994;4.472;2022-09-03T16:32:59;31.62;27.65
71175;DHT22;58876;51.994;4.472;2022-09-03T16:35:49;32.01;27.85
71175;DHT22;58876;51.994;4.472;2022-09-03T16:38:42;31.66;27.54
71175;DHT22;58876;51.994;4.472;2022-09-03T16:46:39;31.08;29.05
71175;DHT22;58876;51.994;4.472;2022-09-03T16:55:44;30.21;30.63
71175;DHT22;58876;51.994;4.472;2022-09-03T16:57:58;29.91;31.97
71175;DHT22;58876;51.994;4.472;2022-09-03T17:06:03;29.23;32.49
71175;DHT22;58876;51.994;4.472;2022-09-03T17:09:09;28.99;32.84
71175;DHT22;58876;51.994;4.472;2022-09-03T17:12:17;28.83;33.37
71175;DHT22;58876;51.994;4.472;2022-09-03T17:20:22;28.76;33.70
71175;DHT22;58876;51.994;4.472;2022-09-03T17:25:40;28.60;34.30
71175;DHT22;58876;51.994;4.472;2022-09-03T17:28:31;28.58;34.36
71175;DHT22;58876;51.994;4.472;2022-09-03T17:34:18;28.52;34.47
71175;DHT22;58876;51.994;4.472;2022-09-03T17:36:58;28.52;34.61
71175;DHT22;58876;51.994;4.472;2022-09-03T17:40:02;28.36;34.62
71175;DHT22;58876;51.994;4.472;2022-09-03T17:42:49;28.21;34.96
71175;DHT22;58876;51.994;4.472;2022-09-03T17:45:40;28.03;35.34
71175;DHT22;58876;51.994;4.472;2022-09-03T17:51:09;27.82;36.24
71175;DHT22;58876;51.994;4.472;2022-09-03T17:53:38;27.85;36.27
71175;DHT22;58876;51.994;4.472;2022-09-03T17:56:24;27.70;36.31
71175;DHT22;58876;51.994;4.472;2022-09-03T18:01:57;27.49;36.95
71175;DHT22;58876;51.994;4.472;2022-09-03T18:07:23;27.38;37.33
71175;DHT22;58876;51.994;4.472;2022-09-03T18:10:07;27.38;37.42
71175;DHT22;58876;51.994;4.472;2022-09-03T18:12:48;27.35;37.50
71175;DHT22;58876;51.994;4.472;2022-09-03T18:15:32;27.31;37.70
71175;DHT22;58876;51.994;4.472;2022-09-03T18:18:07;27.14;37.99
71175;DHT22;58876;51.994;4.472;2022-09-03T18:21:02;27.05;38.22
71175;DHT22;58876;51.994;4.472;2022-09-03T18:27:26;26.94;38.36
71175;DHT22;58876;51.994;4.472;2022-09-03T18:30:11;26.87;38.59
71175;DHT22;58876;51.994;4.472;2022-09-03T18:32:57;26.84;38.77
71175;DHT22;58876;51.994;4.472;2022-09-03T18:35:45;26.83;38.58
71175;DHT22;58876;51.994;4.472;2022-09-03T18:38:32;26.77;39.08
71175;DHT22;58876;51.994;4.472;2022-09-03T18:41:46;26.77;38.52
71175;DHT22;58876;51.994;4.472;2022-09-03T18:44:51;26.74;38.86
71175;DHT22;58876;51.994;4.472;2022-09-03T18:50:47;26.74;38.74
71175;DHT22;58876;51.994;4.472;2022-09-03T18:56:52;26.66;39.59
71175;DHT22;58876;51.994;4.472;2022-09-03T19:06:00;26.53;39.65
71175;DHT22;58876;51.994;4.472;2022-09-03T19:08:49;26.47;39.57
71175;DHT22;58876;51.994;4.472;2022-09-03T19:20:30;26.35;40.18
71175;DHT22;58876;51.994;4.472;2022-09-03T19:23:15;26.37;39.79
71175;DHT22;58876;51.994;4.472;2022-09-03T19:26:19;26.32;40.14
71175;DHT22;58876;51.994;4.472;2022-09-03T19:29:29;26.31;39.99
71175;DHT22;58876;51.994;4.472;2022-09-03T19:32:25;26.31;39.76
71175;DHT22;58876;51.994;4.472;2022-09-03T19:35:18;26.28;40.16
71175;DHT22;58876;51.994;4.472;2022-09-03T19:38:27;26.22;40.33
71175;DHT22;58876;51.994;4.472;2022-09-03T19:41:30;26.15;40.83
71175;DHT22;58876;51.994;4.472;2022-09-03T19:48:07;25.99;40.93
71175;DHT22;58876;51.994;4.472;2022-09-03T19:51:17;25.94;41.26
71175;DHT22;58876;51.994;4.472;2022-09-03T19:54:07;25.88;41.56
71175;DHT22;58876;51.994;4.472;2022-09-03T19:56:54;25.80;41.27
71175;DHT22;58876;51.994;4.472;2022-09-03T19:59:41;25.68;41.74
71175;DHT22;58876;51.994;4.472;2022-09-03T20:02:28;25.66;41.69
71175;DHT22;58876;51.994;4.472;2022-09-03T20:05:19;25.60;42.21
71175;DHT22;58876;51.994;4.472;2022-09-03T20:08:04;25.50;42.33
71175;DHT22;58876;51.994;4.472;2022-09-03T20:10:55;25.38;42.73
71175;DHT22;58876;51.994;4.472;2022-09-03T20:13:21;25.36;42.82
71175;DHT22;58876;51.994;4.472;2022-09-03T20:16:06;25.26;43.55
71175;DHT22;58876;51.994;4.472;2022-09-03T20:27:57;24.57;44.11
71175;DHT22;58876;51.994;4.472;2022-09-03T20:33:23;24.45;43.44
71175;DHT22;58876;51.994;4.472;2022-09-03T20:38:47;24.40;45.00
71175;DHT22;58876;51.994;4.472;2022-09-03T20:41:23;24.37;45.50
71175;DHT22;58876;51.994;4.472;2022-09-03T20:47:01;24.20;44.59
71175;DHT22;58876;51.994;4.472;2022-09-03T20:49:39;24.11;44.59
71175;DHT22;58876;51.994;4.472;2022-09-03T20:54:46;24.01;45.75
71175;DHT22;58876;51.994;4.472;2022-09-03T20:57:28;23.96;45.54
71175;DHT22;58876;51.994;4.472;2022-09-03T21:00:08;23.89;47.03